Aviation Digital Data Service (ADDS)

Output produced by METARs form (1202 UTC 26 March 2019)
found at http://www.aviationweather.gov/metar/data/
 
TAF SVBC 260400Z 2606/2706 15002KT 9999 FEW016 TX29/2615Z TN22/2606Z
     BECMG 2606/2610 32005KT 9999 FEW016 SCT020
       
TAF SVMI 260400Z 2606/2706 08008KT 9999 FEW016 TX26/2612Z TN20/2606Z 
     BECMG 2606/2610 06011KT FEW016 SCT020
       
TAF SVMC 260400Z 2606/2706 04009KT 9999 SCT020 TX31/2615Z TN25/2606Z
     BECMG 2606/2610 02003KT 9000 DZ SCT020 BKN080
       
TAF SVMG 260400Z 2606/2706 08013KT 9999 FEW016 TX27/2612Z TN24/2606Z
     BECMG 2606/2610 08012KT CAVOK
       
TAF SVJC 260400Z 2606/2706 10007KT 9999 SCT020 TX34/2615Z TN24/2606Z
     BECMG 2606/2610 09009KT FEW016 SCT020
       
TAF SVSA 260400Z 2606/2706 26002KT 9000 DZ SCT020 BKN080 TX28/2615Z TN18/2606Z 
     BECMG 2606/2610 13010KT 8000 RA OVC010